Time;durP1;ratioP1;P1;durP2;ratioP2;P2;SDS_P1;SDS_P2;PMS_P1;PMS_P2;Temp;Humidity;BMP_temperature;BMP_pressure;BME280_temperature;BME280_humidity;BME280_pressure;Samples;Min_cycle;Max_cycle;Signal;HPM_P1;HPM_P2
2022/04/25 00:00:15;;;;;;;2.65;1.60;;;358.40;2329.60;;;;;;5029966;28;20424;-51
2022/04/25 00:02:41;;;;;;;2.75;1.50;;;358.40;2329.60;;;;;;5029775;28;20087;-53
2022/04/25 00:05:07;;;;;;;3.58;1.60;;;358.50;2329.60;;;;;;5029737;28;20061;-52
2022/04/25 00:07:33;;;;;;;2.78;1.60;;;358.50;2329.60;;;;;;5030075;28;20108;-53
2022/04/25 00:09:58;;;;;;;2.13;1.30;;;358.40;2329.60;;;;;;5029871;28;20443;-54
2022/04/25 00:12:24;;;;;;;2.33;1.40;;;333.70;2329.60;;;;;;5029944;28;20021;-54
2022/04/25 00:14:50;;;;;;;3.13;1.30;;;333.60;2329.60;;;;;;5029615;28;20256;-53
2022/04/25 00:17:16;;;;;;;2.50;1.52;;;333.60;2329.60;;;;;;5029602;28;20041;-55
2022/04/25 00:19:41;;;;;;;2.17;1.50;;;333.50;2329.60;;;;;;5029783;28;20017;-54
2022/04/25 00:22:07;;;;;;;1.40;0.73;;;333.40;2329.60;;;;;;5029496;28;20111;-55
2022/04/25 00:24:33;;;;;;;1.52;0.93;;;333.40;2329.60;;;;;;5029770;28;20025;-54
2022/04/25 00:26:59;;;;;;;2.25;1.02;;;333.30;2329.60;;;;;;5029686;28;20033;-55
2022/04/25 00:29:24;;;;;;;2.13;1.30;;;333.20;2329.60;;;;;;5029944;28;20025;-55
2022/04/25 00:31:50;;;;;;;3.47;0.88;;;333.10;2329.60;;;;;;5029526;28;20060;-54
2022/04/25 00:34:16;;;;;;;5.38;2.00;;;333.10;2329.60;;;;;;5029326;28;20477;-55
2022/04/25 00:36:41;;;;;;;7.63;1.33;;;333.10;2329.60;;;;;;5029535;28;20037;-54
2022/04/25 00:39:07;;;;;;;2.40;1.48;;;333.20;2329.60;;;;;;5030698;28;20025;-54
2022/04/25 00:41:33;;;;;;;2.15;0.98;;;333.10;2329.60;;;;;;5033281;28;20067;-55
2022/04/25 00:43:59;;;;;;;3.53;0.85;;;333.20;2329.60;;;;;;5033209;28;20383;-54
2022/04/25 00:46:26;;;;;;;3.65;1.83;;;333.20;2329.60;;;;;;5033450;28;20017;-54
2022/04/25 00:48:52;;;;;;;1.88;1.38;;;333.20;2329.60;;;;;;5033132;28;20032;-54
2022/04/25 00:51:19;;;;;;;2.42;1.20;;;333.20;2329.60;;;;;;5032986;28;20049;-54
2022/04/25 00:53:47;;;;;;;2.80;1.25;;;333.10;2329.60;;;;;;5033172;28;20372;-53
2022/04/25 00:56:15;;;;;;;2.60;1.42;;;333.00;2329.60;;;;;;5033016;28;20025;-53
2022/04/25 00:58:43;;;;;;;2.17;1.33;;;333.40;2329.60;;;;;;5033018;28;20037;-54
2022/04/25 01:01:10;;;;;;;5.90;1.48;;;333.10;2329.60;;;;;;5032546;28;20037;-54
2022/04/25 01:03:35;;;;;;;3.50;1.60;;;333.00;2329.60;;;;;;5032797;28;20033;-55
2022/04/25 01:06:01;;;;;;;4.93;1.83;;;332.90;2329.60;;;;;;5032805;28;20375;-53
2022/04/25 01:08:27;;;;;;;3.25;1.10;;;333.00;2329.60;;;;;;5032790;28;20026;-54
2022/04/25 01:10:53;;;;;;;2.65;1.58;;;333.00;2329.60;;;;;;5032844;28;20021;-54
2022/04/25 01:13:19;;;;;;;7.88;1.85;;;332.90;2329.60;;;;;;5032596;28;20076;-54
2022/04/25 01:15:45;;;;;;;3.38;1.20;;;332.90;2329.60;;;;;;5032871;28;20414;-54
2022/04/25 01:18:10;;;;;;;2.22;1.27;;;332.80;2329.60;;;;;;5032478;28;20022;-55
2022/04/25 01:20:36;;;;;;;4.10;1.52;;;332.80;2329.60;;;;;;5032267;28;20045;-54
2022/04/25 01:28:37;;;;;;;6.72;1.60;;;332.90;2329.60;;;;;;5032556;28;20025;-54
2022/04/25 01:31:03;;;;;;;4.32;1.95;;;332.90;2329.60;;;;;;5032263;28;20026;-54
2022/04/25 01:33:29;;;;;;;1.70;1.35;;;332.90;2329.60;;;;;;5031899;28;20079;-55
2022/04/25 01:35:55;;;;;;;2.65;1.10;;;332.90;2329.60;;;;;;5032226;28;20053;-54
2022/04/25 01:38:21;;;;;;;2.13;1.20;;;332.90;2329.60;;;;;;5032299;28;20116;-55
2022/04/25 01:40:47;;;;;;;3.53;1.58;;;332.90;2329.60;;;;;;5031968;28;20129;-52
2022/04/25 01:43:13;;;;;;;5.45;1.67;;;333.00;2329.60;;;;;;5032298;28;20041;-53
2022/04/25 01:45:42;;;;;;;2.97;1.33;;;333.10;2329.60;;;;;;5031950;28;20036;-53
2022/04/25 01:48:08;;;;;;;3.20;1.90;;;333.20;2329.60;;;;;;5032039;28;20072;-54
2022/04/25 01:50:33;;;;;;;2.53;1.42;;;333.20;2329.60;;;;;;5031660;28;20049;-55
2022/04/25 01:52:59;;;;;;;2.33;1.25;;;333.30;2329.60;;;;;;5031777;28;20473;-53
2022/04/25 01:55:25;;;;;;;7.78;1.75;;;333.00;2329.60;;;;;;5032184;28;20018;-54
2022/04/25 01:57:51;;;;;;;3.78;1.40;;;332.90;2329.60;;;;;;5031734;28;20030;-53
2022/04/25 02:00:16;;;;;;;4.38;1.70;;;332.80;2329.60;;;;;;5031739;28;20116;-54
2022/04/25 02:02:42;;;;;;;1.98;1.10;;;332.80;2329.60;;;;;;5031581;28;20099;-54
2022/04/25 02:05:08;;;;;;;10.00;1.70;;;332.90;2329.60;;;;;;5031588;28;20050;-54
2022/04/25 02:07:34;;;;;;;1.90;1.08;;;333.00;2329.60;;;;;;5031654;28;20571;-54
2022/04/25 02:10:00;;;;;;;1.85;0.98;;;333.00;2329.60;;;;;;5031678;28;20112;-55
2022/04/25 02:12:26;;;;;;;2.08;1.30;;;333.00;2329.60;;;;;;5031362;28;20368;-54
2022/04/25 02:14:52;;;;;;;3.95;1.00;;;333.00;2329.60;;;;;;5031652;28;20068;-53
2022/04/25 02:17:18;;;;;;;3.67;1.02;;;333.00;2329.60;;;;;;5031208;28;20029;-53
2022/04/25 02:19:46;;;;;;;3.25;1.13;;;332.80;2329.60;;;;;;5031367;28;20025;-54
2022/04/25 02:22:13;;;;;;;1.10;1.00;;;308.10;2304.00;;;;;;5031301;28;20044;-54
2022/04/25 02:24:39;;;;;;;4.40;1.60;;;308.10;2304.00;;;;;;5031321;28;20030;-53
2022/04/25 02:27:06;;;;;;;3.30;1.02;;;308.10;2304.00;;;;;;5031386;28;20467;-53
2022/04/25 02:29:35;;;;;;;2.67;1.30;;;333.10;2329.60;;;;;;5031414;28;20049;-54
2022/04/25 02:32:02;;;;;;;1.63;1.00;;;333.30;2329.60;;;;;;5030902;28;20514;-53
2022/04/25 02:34:29;;;;;;;3.42;1.13;;;333.50;2329.60;;;;;;5030673;28;20049;-53
2022/04/25 02:36:58;;;;;;;3.17;1.13;;;333.70;2329.60;;;;;;5031610;28;20039;-54
2022/04/25 02:39:24;;;;;;;1.65;0.75;;;333.70;2329.60;;;;;;5031061;28;20032;-54
2022/04/25 02:41:51;;;;;;;3.53;1.85;;;358.50;2329.60;;;;;;5030728;28;20487;-55
2022/04/25 02:44:18;;;;;;;5.13;1.17;;;358.70;2329.60;;;;;;5031032;28;20025;-54
2022/04/25 02:46:44;;;;;;;3.35;1.05;;;358.70;2329.60;;;;;;5030936;28;20105;-54
2022/04/25 02:49:09;;;;;;;2.63;0.70;;;358.90;2329.60;;;;;;5030943;28;20064;-54
2022/04/25 02:51:35;;;;;;;1.88;1.10;;;359.10;2304.00;;;;;;5030764;28;20025;-54
2022/04/25 02:54:01;;;;;;;1.63;1.10;;;359.10;2329.60;;;;;;5030880;28;20108;-53
2022/04/25 02:56:27;;;;;;;1.25;0.90;;;359.10;2329.60;;;;;;5030877;28;20100;-54
2022/04/25 02:58:52;;;;;;;1.70;1.05;;;384.30;2048.00;;;;;;5030802;28;20029;-53
2022/04/25 03:01:18;;;;;;;1.92;1.20;;;384.60;2022.40;;;;;;5029651;28;20037;-53
2022/04/25 03:03:44;;;;;;;1.00;0.75;;;384.80;1971.20;;;;;;5030515;28;20029;-53
2022/04/25 03:06:10;;;;;;;4.70;1.15;;;384.90;1920.00;;;;;;5030496;28;20104;-53
2022/04/25 03:08:36;;;;;;;2.13;0.85;;;409.60;1920.00;;;;;;5029466;28;20113;-54
2022/04/25 03:11:04;;;;;;;1.20;0.85;;;409.70;1920.00;;;;;;5030611;28;20026;-53
2022/04/25 03:13:31;;;;;;;1.35;1.13;;;409.70;1894.40;;;;;;5030574;28;20546;-53
2022/04/25 03:15:57;;;;;;;1.75;1.30;;;409.80;1868.80;;;;;;5030503;28;20033;-54
2022/04/25 03:18:23;;;;;;;1.02;0.80;;;409.80;1868.80;;;;;;5030576;28;20483;-55
2022/04/25 03:20:50;;;;;;;0.77;0.73;;;409.90;1868.80;;;;;;5030205;28;20029;-54
2022/04/25 03:23:17;;;;;;;0.73;0.60;;;409.90;1868.80;;;;;;5028879;28;20099;-54
2022/04/25 03:25:43;;;;;;;0.82;0.65;;;409.80;1868.80;;;;;;5030419;28;20460;-53
2022/04/25 03:28:09;;;;;;;1.90;1.13;;;409.90;1868.80;;;;;;5029217;28;20041;-51
2022/04/25 03:30:35;;;;;;;1.63;1.10;;;409.90;1868.80;;;;;;5030201;28;20048;-54
2022/04/25 03:33:01;;;;;;;1.00;0.90;;;409.90;1868.80;;;;;;5030060;28;20036;-53
2022/04/25 03:35:27;;;;;;;1.10;0.70;;;409.80;1894.40;;;;;;5030120;28;20045;-54
2022/04/25 03:37:53;;;;;;;3.38;1.35;;;409.70;1894.40;;;;;;5030386;28;20559;-53
2022/04/25 03:40:19;;;;;;;0.85;0.73;;;409.70;1868.80;;;;;;5030142;28;20100;-53
2022/04/25 03:42:45;;;;;;;1.27;0.77;;;409.70;1894.40;;;;;;5029938;28;20092;-53
2022/04/25 03:45:14;;;;;;;2.05;1.25;;;409.70;1868.80;;;;;;5030068;28;20026;-54
2022/04/25 03:47:41;;;;;;;4.28;0.90;;;409.60;1920.00;;;;;;5030106;28;20040;-54
2022/04/25 03:50:08;;;;;;;1.98;0.82;;;384.90;1920.00;;;;;;5030163;28;20021;-53
2022/04/25 03:52:35;;;;;;;1.58;1.10;;;384.80;1920.00;;;;;;5030011;28;20025;-54
2022/04/25 03:57:47;;;;;;;2.58;1.38;;;384.40;2099.20;;;;;;5029996;28;20095;-54
2022/04/25 04:00:13;;;;;;;1.45;1.15;;;384.40;1996.80;;;;;;5030019;28;20420;-54
2022/04/25 04:02:39;;;;;;;1.80;0.90;;;384.50;1996.80;;;;;;5029580;28;20084;-53
2022/04/25 04:05:05;;;;;;;4.78;3.25;;;384.30;2124.80;;;;;;5029889;28;20029;-54
2022/04/25 04:07:31;;;;;;;1.65;1.17;;;384.30;2022.40;;;;;;5029640;28;20043;-55
2022/04/25 04:09:57;;;;;;;2.15;0.93;;;384.30;2022.40;;;;;;5029830;28;20024;-54
2022/04/25 04:12:25;;;;;;;4.25;1.00;;;384.50;1945.60;;;;;;5030140;28;20472;-55
2022/04/25 04:14:51;;;;;;;2.75;2.20;;;384.50;1945.60;;;;;;5033768;28;20041;-54
2022/04/25 04:17:17;;;;;;;1.42;1.00;;;384.50;1945.60;;;;;;5033822;28;20083;-54
2022/04/25 04:19:46;;;;;;;2.25;1.60;;;384.50;1945.60;;;;;;5033959;28;20033;-55
2022/04/25 04:22:12;;;;;;;1.02;0.88;;;384.50;1996.80;;;;;;5033633;28;20029;-53
2022/04/25 04:24:38;;;;;;;1.17;1.05;;;384.40;2048.00;;;;;;5033296;28;20056;-53
2022/04/25 04:27:05;;;;;;;1.95;1.10;;;384.30;2124.80;;;;;;5033702;28;20156;-53
2022/04/25 04:29:34;;;;;;;1.15;0.75;;;384.20;2124.80;;;;;;5033538;28;20104;-54
2022/04/25 04:32:07;;;;;;;3.25;1.30;;;384.10;2227.20;;;;;;5033627;28;20057;-54
2022/04/25 04:34:35;;;;;;;1.70;1.40;;;384.10;2304.00;;;;;;5033107;28;20129;-54
2022/04/25 04:37:02;;;;;;;2.88;1.70;;;384.10;2329.60;;;;;;5033455;28;20033;-52
2022/04/25 04:39:28;;;;;;;3.00;1.83;;;384.30;2329.60;;;;;;5033156;28;20480;-54
2022/04/25 04:41:54;;;;;;;2.15;1.40;;;384.30;2329.60;;;;;;5033331;28;20072;-54
2022/04/25 04:44:20;;;;;;;3.55;1.88;;;384.20;2329.60;;;;;;5033197;28;20033;-54
2022/04/25 04:46:47;;;;;;;1.83;1.10;;;384.30;2329.60;;;;;;5033366;28;20034;-54
2022/04/25 04:49:13;;;;;;;2.42;1.33;;;384.50;2329.60;;;;;;5033388;28;20022;-54
2022/04/25 04:51:39;;;;;;;2.38;1.52;;;384.70;2329.60;;;;;;5033149;28;20036;-54
2022/04/25 04:54:04;;;;;;;2.20;1.30;;;409.70;2355.20;;;;;;5033062;28;20104;-54
2022/04/25 04:56:31;;;;;;;2.03;0.77;;;409.90;2355.20;;;;;;5032920;28;20048;-53
2022/04/25 04:58:58;;;;;;;2.55;1.33;;;409.70;2355.20;;;;;;5032841;28;20022;-55
2022/04/25 05:01:25;;;;;;;4.13;2.08;;;384.90;2329.60;;;;;;5033103;28;20538;-54
2022/04/25 05:03:51;;;;;;;2.15;1.90;;;409.70;2355.20;;;;;;5032809;28;20116;-54
2022/04/25 05:06:17;;;;;;;3.88;1.90;;;538.00;1740.80;;;;;;5032744;28;20108;-53
2022/04/25 05:08:43;;;;;;;3.38;1.77;;;589.70;1510.40;;;;;;5032788;28;20410;-54
2022/04/25 05:11:09;;;;;;;4.35;1.63;;;614.90;1459.20;;;;;;5032701;28;20124;-55
2022/04/25 05:13:36;;;;;;;2.50;1.25;;;563.20;1612.80;;;;;;5032637;28;20113;-55
2022/04/25 05:16:03;;;;;;;1.60;1.17;;;487.10;1766.40;;;;;;5032936;28;20030;-54
2022/04/25 05:18:32;;;;;;;5.10;1.50;;;461.10;1894.40;;;;;;5032475;28;20376;-54
2022/04/25 05:20:58;;;;;;;1.75;1.17;;;460.80;1971.20;;;;;;5032601;28;20033;-55
2022/04/25 05:23:25;;;;;;;3.70;1.70;;;435.50;2124.80;;;;;;5032587;28;20380;-55
2022/04/25 05:25:51;;;;;;;1.70;1.20;;;435.20;2227.20;;;;;;5031737;28;20200;-55
2022/04/25 05:28:16;;;;;;;3.08;1.60;;;410.50;2304.00;;;;;;5032183;28;20376;-55
2022/04/25 05:30:43;;;;;;;2.65;1.50;;;460.90;2099.20;;;;;;5032340;28;20101;-56
2022/04/25 05:33:09;;;;;;;2.38;1.42;;;435.40;2252.80;;;;;;5032028;28;20029;-55
2022/04/25 05:35:35;;;;;;;1.95;1.20;;;410.50;2355.20;;;;;;5032101;28;20061;-54
2022/04/25 05:38:02;;;;;;;2.28;1.63;;;410.30;2355.20;;;;;;5032293;28;20380;-54
2022/04/25 05:40:29;;;;;;;2.60;1.67;;;410.20;2355.20;;;;;;5032181;28;20025;-54
2022/04/25 05:42:56;;;;;;;3.58;1.75;;;410.00;2355.20;;;;;;5032150;28;20116;-55
2022/04/25 05:45:24;;;;;;;3.53;1.33;;;410.20;2355.20;;;;;;5032125;28;20108;-55
2022/04/25 05:47:54;;;;;;;1.80;1.08;;;410.10;2355.20;;;;;;5032001;28;20041;-55
2022/04/25 05:53:05;;;;;;;3.15;1.98;;;410.40;2355.20;;;;;;5032291;28;20498;-55
2022/04/25 05:55:31;;;;;;;6.75;2.30;;;410.40;2355.20;;;;;;5032100;28;20111;-54
2022/04/25 05:57:58;;;;;;;3.20;1.65;;;410.50;2355.20;;;;;;5031640;28;20100;-55
2022/04/25 06:00:25;;;;;;;3.67;1.50;;;435.40;2329.60;;;;;;5032104;28;20428;-55
2022/04/25 06:02:51;;;;;;;3.03;1.77;;;435.80;2252.80;;;;;;5031509;28;20400;-53
2022/04/25 06:05:17;;;;;;;4.30;1.98;;;461.00;2176.00;;;;;;5031524;28;20028;-55
2022/04/25 06:07:45;;;;;;;2.80;1.60;;;461.10;2124.80;;;;;;5031791;28;20068;-55
2022/04/25 06:10:13;;;;;;;3.22;1.60;;;436.10;2124.80;;;;;;5031638;28;20072;-55
2022/04/25 06:12:44;;;;;;;3.83;2.00;;;436.10;2099.20;;;;;;5030270;28;20436;-55
2022/04/25 06:15:10;;;;;;;9.60;1.75;;;461.10;2099.20;;;;;;5031326;28;20029;-54
2022/04/25 06:17:37;;;;;;;2.70;1.60;;;460.90;2099.20;;;;;;5031573;28;20028;-54
2022/04/25 06:20:07;;;;;;;6.70;2.13;;;461.50;2022.40;;;;;;5031538;28;20029;-54
2022/04/25 06:22:33;;;;;;;4.35;1.80;;;537.60;1766.40;;;;;;5031300;28;20033;-55
2022/04/25 06:24:59;;;;;;;5.93;2.08;;;487.30;1868.80;;;;;;5031189;28;20079;-55
2022/04/25 06:27:25;;;;;;;2.63;1.48;;;486.80;1894.40;;;;;;5031366;28;20025;-55
2022/04/25 06:29:52;;;;;;;2.10;1.42;;;487.10;1868.80;;;;;;5031120;28;20036;-55
2022/04/25 06:32:19;;;;;;;3.95;3.35;;;512.80;1792.00;;;;;;5031151;28;20056;-56
2022/04/25 06:34:45;;;;;;;2.63;1.98;;;614.50;1612.80;;;;;;5031015;28;20108;-54
2022/04/25 06:37:11;;;;;;;3.65;3.00;;;614.40;1484.80;;;;;;5031022;28;20044;-55
2022/04/25 06:39:37;;;;;;;4.28;3.47;;;666.20;1356.80;;;;;;5030940;28;20025;-55
2022/04/25 06:42:04;;;;;;;3.60;3.28;;;768.10;1203.20;;;;;;5030873;28;20072;-55
2022/04/25 06:44:31;;;;;;;4.45;4.05;;;819.70;1075.20;;;;;;5030606;28;20460;-56
2022/04/25 06:46:58;;;;;;;5.47;4.80;;;845.50;1024.00;;;;;;5029404;28;20053;-56
2022/04/25 06:49:24;;;;;;;5.85;4.80;;;870.50;998.40;;;;;;5030961;28;20036;-56
2022/04/25 06:51:58;;;;;;;5.35;4.90;;;871.10;998.40;;;;;;5030625;28;20040;-56
2022/04/25 06:54:25;;;;;;;5.55;5.05;;;871.00;972.80;;;;;;5030942;28;20025;-56
2022/04/25 06:56:52;;;;;;;5.72;5.10;;;896.90;921.60;;;;;;5030782;28;20368;-55
2022/04/25 06:59:19;;;;;;;6.72;4.50;;;896.90;921.60;;;;;;5030529;28;20029;-55
2022/04/25 07:01:45;;;;;;;5.10;4.70;;;896.90;896.00;;;;;;5030846;28;20388;-56
2022/04/25 07:04:13;;;;;;;5.28;4.78;;;921.60;921.60;;;;;;5030325;28;20484;-56
2022/04/25 07:06:40;;;;;;;6.47;5.97;;;921.80;921.60;;;;;;5030500;28;20108;-56
2022/04/25 07:09:07;;;;;;;6.30;5.85;;;921.90;921.60;;;;;;5030465;28;20609;-56
2022/04/25 07:11:33;;;;;;;5.55;5.15;;;819.90;1024.00;;;;;;5030372;28;20021;-57
2022/04/25 07:14:02;;;;;;;8.05;7.53;;;871.30;947.20;;;;;;5029809;28;20028;-56
2022/04/25 07:16:28;;;;;;;5.55;4.82;;;896.00;921.60;;;;;;5027853;28;20030;-57
2022/04/25 07:18:55;;;;;;;5.15;4.75;;;845.00;998.40;;;;;;5030463;28;20026;-57
2022/04/25 07:29:34;;;;;;;4.63;3.15;;;717.60;1152.00;;;;;;5030545;28;20083;-57
2022/04/25 07:31:59;;;;;;;4.32;2.65;;;794.30;1075.20;;;;;;5030045;28;20022;-56
2022/04/25 07:34:25;;;;;;;3.55;2.38;;;742.50;1152.00;;;;;;5029947;28;20378;-55
2022/04/25 07:36:54;;;;;;;3.08;2.33;;;691.70;1177.60;;;;;;5029943;28;20041;-55
2022/04/25 07:39:23;;;;;;;4.28;3.97;;;665.90;1254.40;;;;;;5029380;28;20041;-57
2022/04/25 07:41:50;;;;;;;3.80;1.88;;;717.50;1177.60;;;;;;5029611;28;20373;-56
2022/04/25 07:44:16;;;;;;;2.50;1.98;;;717.60;1152.00;;;;;;5029799;28;20036;-56
2022/04/25 07:46:42;;;;;;;3.20;2.13;;;717.20;1177.60;;;;;;5030096;28;20046;-56
2022/04/25 07:49:09;;;;;;;4.88;2.20;;;691.30;1228.80;;;;;;5035635;28;20413;-57
2022/04/25 07:51:42;;;;;;;2.45;1.92;;;665.90;1254.40;;;;;;5036754;28;20025;-57
2022/04/25 07:54:09;;;;;;;2.10;1.67;;;589.70;1382.40;;;;;;5036378;28;20116;-64
2022/04/25 07:56:39;;;;;;;2.15;1.45;;;614.70;1356.80;;;;;;5036615;28;20073;-63
2022/04/25 07:59:05;;;;;;;2.92;2.03;;;614.60;1408.00;;;;;;5035245;28;20107;-60
2022/04/25 08:01:32;;;;;;;3.47;2.08;;;588.80;1433.60;;;;;;5036485;28;20036;-62
2022/04/25 08:03:58;;;;;;;2.53;1.63;;;589.10;1459.20;;;;;;5036134;28;20029;-59
2022/04/25 08:06:24;;;;;;;5.47;2.20;;;563.70;1484.80;;;;;;5036854;28;20105;-57
2022/04/25 08:08:51;;;;;;;2.33;1.50;;;563.60;1510.40;;;;;;5036277;28;20036;-63
2022/04/25 08:11:18;;;;;;;3.50;2.70;;;563.70;1510.40;;;;;;5036457;28;20096;-61
2022/04/25 08:19:13;;;;;;;3.70;3.40;;;692.10;1228.80;;;;;;5036344;28;20036;-64
2022/04/25 08:21:40;;;;;;;4.13;3.72;;;793.70;1126.40;;;;;;5035996;28;20067;-61
2022/04/25 08:24:06;;;;;;;3.35;2.25;;;793.60;1126.40;;;;;;5036159;28;20456;-61
2022/04/25 08:26:32;;;;;;;4.05;3.75;;;768.00;1126.40;;;;;;5036452;28;20029;-64
2022/04/25 08:28:59;;;;;;;3.67;2.92;;;793.90;1100.80;;;;;;5034536;28;20530;-60
2022/04/25 08:31:28;;;;;;;3.10;2.30;;;717.30;1203.20;;;;;;5036236;28;20104;-62
2022/04/25 08:33:56;;;;;;;4.22;2.50;;;691.30;1254.40;;;;;;5036129;28;20049;-60
2022/04/25 08:36:23;;;;;;;3.33;2.08;;;640.70;1305.60;;;;;;5036296;28;20042;-66
2022/04/25 08:38:49;;;;;;;4.60;2.70;;;614.50;1408.00;;;;;;5035881;28;20029;-64
2022/04/25 08:41:17;;;;;;;6.82;2.80;;;589.60;1433.60;;;;;;5036228;28;20472;-65
2022/04/25 08:43:43;;;;;;;3.30;1.77;;;589.60;1433.60;;;;;;5036126;28;20129;-65
2022/04/25 08:46:10;;;;;;;3.58;2.13;;;589.70;1433.60;;;;;;5035889;28;20475;-61
2022/04/25 08:48:39;;;;;;;4.15;2.33;;;589.30;1433.60;;;;;;5036230;28;20116;-60
2022/04/25 08:51:07;;;;;;;5.07;3.10;;;589.60;1433.60;;;;;;5036078;28;20083;-61
2022/04/25 08:53:35;;;;;;;7.47;4.90;;;589.00;1510.40;;;;;;5036159;28;20113;-64
2022/04/25 08:56:03;;;;;;;4.78;3.50;;;589.30;1484.80;;;;;;5035868;28;20034;-57
2022/04/25 08:58:31;;;;;;;3.13;2.00;;;614.60;1484.80;;;;;;5034374;28;20426;-62
2022/04/25 09:00:58;;;;;;;9.63;5.28;;;614.60;1433.60;;;;;;5030740;28;20087;-62
2022/04/25 09:03:27;;;;;;;11.02;6.65;;;589.60;1433.60;;;;;;5032833;28;20037;-62
2022/04/25 09:05:53;;;;;;;4.07;2.65;;;588.80;1484.80;;;;;;5032988;28;20040;-62
2022/04/25 09:08:19;;;;;;;8.23;4.78;;;589.00;1433.60;;;;;;5032677;28;20021;-58
2022/04/25 09:10:46;;;;;;;5.28;3.30;;;564.10;1433.60;;;;;;5032739;28;20115;-64
2022/04/25 09:13:12;;;;;;;9.02;6.55;;;564.10;1459.20;;;;;;5032696;28;20021;-62
2022/04/25 09:15:38;;;;;;;8.48;5.18;;;588.80;1433.60;;;;;;5032365;28;20025;-61
2022/04/25 09:18:04;;;;;;;12.20;5.93;;;564.00;1484.80;;;;;;5032699;28;20037;-56
2022/04/25 09:20:30;;;;;;;4.68;2.30;;;563.90;1484.80;;;;;;5032345;28;20025;-61
2022/04/25 09:22:57;;;;;;;4.20;2.30;;;563.90;1484.80;;;;;;5032439;28;20033;-58
2022/04/25 09:25:23;;;;;;;2.38;1.48;;;563.90;1459.20;;;;;;5032469;28;20029;-61
2022/04/25 09:28:07;;;;;;;3.08;2.13;;;589.00;1433.60;;;;;;5032309;28;20080;-67
2022/04/25 09:30:32;;;;;;;3.13;1.80;;;589.60;1433.60;;;;;;5032387;28;20022;-67
2022/04/25 09:32:58;;;;;;;3.40;1.73;;;589.50;1408.00;;;;;;5031985;28;20026;-63
2022/04/25 09:35:33;;;;;;;3.28;2.00;;;614.60;1382.40;;;;;;5032123;28;20053;-68
2022/04/25 09:38:02;;;;;;;4.05;2.13;;;614.80;1356.80;;;;;;5032040;28;20121;-68
2022/04/25 09:40:29;;;;;;;4.65;1.50;;;615.00;1331.20;;;;;;5031727;28;20030;-62
2022/04/25 09:43:11;;;;;;;2.15;1.60;;;615.30;1331.20;;;;;;5032101;28;20473;-67
2022/04/25 09:45:40;;;;;;;3.83;1.75;;;615.10;1305.60;;;;;;5032051;28;20369;-64
2022/04/25 09:48:15;;;;;;;3.20;1.60;;;614.50;1331.20;;;;;;5032255;28;20029;-69
2022/04/25 09:50:43;;;;;;;5.25;1.92;;;589.60;1408.00;;;;;;5032130;28;20056;-66
2022/04/25 09:53:10;;;;;;;3.33;2.55;;;589.50;1408.00;;;;;;5031893;28;20473;-65
2022/04/25 09:55:38;;;;;;;2.65;2.05;;;588.80;1433.60;;;;;;5032137;28;20060;-56
2022/04/25 09:58:23;;;;;;;1.83;1.38;;;588.90;1459.20;;;;;;5031748;28;20507;-65
2022/04/25 10:00:53;;;;;;;2.65;1.70;;;588.80;1408.00;;;;;;5031809;28;20108;-64
2022/04/25 10:03:34;;;;;;;3.15;1.83;;;563.90;1408.00;;;;;;5031470;28;20140;-64
2022/04/25 10:06:02;;;;;;;4.55;2.42;;;564.00;1408.00;;;;;;5031825;28;20087;-65
2022/04/25 10:08:30;;;;;;;3.53;2.15;;;589.00;1408.00;;;;;;5031742;28;20025;-62
2022/04/25 10:10:59;;;;;;;2.72;1.70;;;564.10;1408.00;;;;;;5031330;28;20018;-59
2022/04/25 10:13:26;;;;;;;2.38;1.50;;;564.10;1433.60;;;;;;5031647;28;20030;-64
2022/04/25 10:15:55;;;;;;;2.00;1.40;;;564.00;1382.40;;;;;;5031568;28;20049;-65
2022/04/25 10:18:21;;;;;;;3.40;1.27;;;588.90;1484.80;;;;;;5031569;28;20475;-61
2022/04/25 10:20:47;;;;;;;1.98;1.13;;;589.20;1382.40;;;;;;5031294;28;20052;-65
2022/04/25 10:23:15;;;;;;;2.58;1.38;;;589.20;1433.60;;;;;;5031480;28;20399;-65
2022/04/25 10:25:47;;;;;;;1.80;1.10;;;588.90;1459.20;;;;;;5031149;28;20099;-65
2022/04/25 10:28:56;;;;;;;1.80;1.03;;;589.00;1331.20;;;;;;5031342;28;20032;-65
2022/04/25 10:31:38;;;;;;;1.27;1.00;;;589.20;1280.00;;;;;;4989157;28;20276;-65
2022/04/25 10:34:05;;;;;;;1.98;1.13;;;589.60;1305.60;;;;;;4989505;28;20031;-64
2022/04/25 10:36:39;;;;;;;1.13;1.02;;;614.40;1280.00;;;;;;4989600;28;20117;-62
2022/04/25 10:39:19;;;;;;;1.40;1.05;;;588.90;1280.00;;;;;;4989604;28;20034;-64
2022/04/25 10:44:37;;;;;;;0.73;0.73;;;589.60;1280.00;;;;;;4989471;28;20061;-64
2022/04/25 10:47:06;;;;;;;1.77;0.93;;;589.60;1280.00;;;;;;4989709;28;20417;-66
2022/04/25 10:49:31;;;;;;;1.05;0.95;;;614.50;1254.40;;;;;;4989545;28;20034;-64
2022/04/25 10:51:58;;;;;;;0.85;0.85;;;614.50;1280.00;;;;;;4989421;28;20425;-66
2022/04/25 10:54:27;;;;;;;0.82;0.82;;;589.60;1254.40;;;;;;4973216;28;20061;-65
2022/04/25 10:57:22;;;;;;;0.80;0.80;;;589.50;1228.80;;;;;;4989617;28;20465;-65
2022/04/25 10:59:48;;;;;;;1.20;0.98;;;589.60;1254.40;;;;;;4893406;29;20047;-65
2022/04/25 11:02:27;;;;;;;0.70;0.70;;;589.60;1254.40;;;;;;4893473;29;20066;-66
2022/04/25 11:05:11;;;;;;;0.80;0.80;;;589.50;1228.80;;;;;;4893637;29;20049;-66
2022/04/25 11:07:41;;;;;;;0.90;0.90;;;589.60;1280.00;;;;;;4912553;29;20068;-63
2022/04/25 11:10:11;;;;;;;0.85;0.80;;;589.30;1280.00;;;;;;4950302;29;20041;-65
2022/04/25 11:12:57;;;;;;;0.98;0.80;;;589.30;1382.40;;;;;;4950284;29;20030;-65
2022/04/25 11:15:42;;;;;;;1.70;1.00;;;588.90;1254.40;;;;;;4950350;29;20066;-65
2022/04/25 11:18:27;;;;;;;1.00;1.00;;;589.00;1280.00;;;;;;4950088;28;20032;-65
2022/04/25 11:20:56;;;;;;;0.93;0.80;;;589.10;1228.80;;;;;;4950292;29;20102;-64
2022/04/25 11:23:30;;;;;;;0.60;0.60;;;589.40;1305.60;;;;;;4949370;28;20391;-64
2022/04/25 11:25:56;;;;;;;0.63;0.63;;;589.30;1254.40;;;;;;4950363;29;20027;-63
2022/04/25 11:28:23;;;;;;;0.80;0.80;;;589.30;1254.40;;;;;;4950037;29;20031;-66
2022/04/25 11:31:13;;;;;;;1.55;1.00;;;589.20;1280.00;;;;;;4949937;29;20075;-65
2022/04/25 11:33:47;;;;;;;1.45;1.10;;;589.00;1280.00;;;;;;4949815;29;20066;-63
2022/04/25 11:36:13;;;;;;;2.95;1.40;;;588.90;1331.20;;;;;;4990947;28;20405;-65
2022/04/25 11:41:29;;;;;;;0.80;0.80;;;589.00;1382.40;;;;;;5030146;28;20095;-61
2022/04/25 11:43:55;;;;;;;0.73;0.60;;;589.20;1280.00;;;;;;5030550;28;20068;-62
2022/04/25 11:46:21;;;;;;;1.00;0.90;;;589.50;1254.40;;;;;;5029976;28;20033;-65
2022/04/25 11:48:51;;;;;;;1.10;0.90;;;589.60;1254.40;;;;;;5029899;28;20033;-63
2022/04/25 11:51:23;;;;;;;1.70;1.10;;;614.40;1254.40;;;;;;5030022;28;20030;-63
2022/04/25 11:53:57;;;;;;;0.60;0.60;;;614.40;1254.40;;;;;;5030190;28;20026;-58
2022/04/25 11:56:23;;;;;;;1.20;0.93;;;614.50;1254.40;;;;;;5030123;28;20060;-60
2022/04/25 11:58:50;;;;;;;1.42;0.95;;;614.40;1228.80;;;;;;5029825;28;20064;-64
2022/04/25 12:01:41;;;;;;;0.80;0.80;;;614.70;1203.20;;;;;;5030034;28;20026;-64
2022/04/25 12:04:19;;;;;;;1.05;0.90;;;614.60;1228.80;;;;;;5029872;28;20037;-62
2022/04/25 12:07:01;;;;;;;0.75;0.70;;;614.90;1254.40;;;;;;5029850;28;20037;-66
2022/04/25 12:15:35;;;;;;;0.90;0.90;;;614.50;1305.60;;;;;;5029525;28;20153;-62
2022/04/25 12:18:17;;;;;;;0.57;0.57;;;614.50;1331.20;;;;;;5029847;28;20222;-62
2022/04/25 12:20:49;;;;;;;0.70;0.70;;;589.70;1254.40;;;;;;5029704;28;20025;-56
2022/04/25 12:23:31;;;;;;;0.63;0.63;;;589.60;1305.60;;;;;;5029501;28;20040;-57
2022/04/25 12:25:58;;;;;;;0.60;0.60;;;589.60;1356.80;;;;;;5027855;28;20056;-57
2022/04/25 12:28:26;;;;;;;0.70;0.70;;;589.70;1280.00;;;;;;5027931;28;20462;-59
2022/04/25 12:31:15;;;;;;;0.70;0.70;;;614.40;1280.00;;;;;;5028119;28;20044;-57
2022/04/25 12:33:43;;;;;;;0.90;0.90;;;615.10;1254.40;;;;;;5028637;28;20018;-56
2022/04/25 12:36:29;;;;;;;3.08;0.80;;;640.10;1203.20;;;;;;5031527;28;20049;-57
2022/04/25 12:39:01;;;;;;;1.30;1.20;;;640.50;1228.80;;;;;;5031194;28;20510;-58
2022/04/25 12:41:32;;;;;;;1.70;1.08;;;640.60;1203.20;;;;;;5031758;28;20025;-58
2022/04/25 12:44:15;;;;;;;1.40;0.95;;;640.20;1203.20;;;;;;5031552;28;20034;-56
2022/04/25 12:46:48;;;;;;;0.80;0.80;;;615.20;1177.60;;;;;;5031776;28;20022;-57
2022/04/25 12:49:17;;;;;;;0.80;0.80;;;615.30;1228.80;;;;;;5031704;28;20033;-56
2022/04/25 12:51:46;;;;;;;0.80;0.80;;;640.00;1177.60;;;;;;5031208;28;20113;-58
2022/04/25 12:54:30;;;;;;;2.00;1.00;;;640.10;1203.20;;;;;;5031485;28;20029;-56
2022/04/25 12:57:13;;;;;;;0.70;0.70;;;640.60;1203.20;;;;;;5031451;28;20056;-62
2022/04/25 12:59:40;;;;;;;0.93;0.93;;;640.60;1152.00;;;;;;5031174;28;20079;-60